Time;durP1;ratioP1;P1;durP2;ratioP2;P2;SDS_P1;SDS_P2;PMS_P1;PMS_P2;Temp;Humidity;BMP_temperature;BMP_pressure;BME280_temperature;BME280_humidity;BME280_pressure;Samples;Min_cycle;Max_cycle;Signal;HPM_P1;HPM_P2
2023/04/11 00:01:09;;;;;;;4.73;1.50;;;;;;;13.98;61.15;98307.34;5013162;28;20287;-58
2023/04/11 00:03:37;;;;;;;3.37;1.73;;;;;;;13.59;61.73;98309.22;5016576;28;20236;-56
2023/04/11 00:06:04;;;;;;;2.30;1.77;;;;;;;13.60;62.04;98310.00;5017102;28;20241;-58
2023/04/11 00:08:33;;;;;;;3.00;1.93;;;;;;;13.52;62.31;98287.31;5014113;28;20241;-57
2023/04/11 00:11:00;;;;;;;4.27;1.87;;;;;;;13.46;61.81;98296.69;5018089;28;20247;-57
2023/04/11 00:13:28;;;;;;;5.77;1.77;;;;;;;13.42;62.16;98279.69;5012148;28;20236;-58
2023/04/11 00:15:54;;;;;;;4.43;1.77;;;;;;;13.43;62.66;98263.78;5015070;28;20239;-58
2023/04/11 00:18:21;;;;;;;4.97;1.90;;;;;;;13.42;61.14;98259.53;5012570;28;20577;-57
2023/04/11 00:20:48;;;;;;;4.83;1.77;;;;;;;13.41;62.07;98260.53;5017125;28;20238;-58
2023/04/11 00:23:15;;;;;;;2.27;1.57;;;;;;;13.39;62.43;98287.88;5015073;28;20241;-56
2023/04/11 00:25:41;;;;;;;3.97;2.07;;;;;;;13.36;63.72;98325.75;5016480;28;20224;-57
2023/04/11 00:28:08;;;;;;;3.40;2.00;;;;;;;13.27;66.37;98340.72;5018480;28;20817;-58
2023/04/11 00:30:42;;;;;;;2.67;1.77;;;;;;;13.17;66.41;98352.44;5017446;28;20232;-58
2023/04/11 00:33:14;;;;;;;4.40;2.10;;;;;;;13.04;68.95;98317.13;4957531;28;20219;-58
2023/04/11 00:35:46;;;;;;;4.07;2.20;;;;;;;12.91;70.59;98291.53;4984482;28;20236;-59
2023/04/11 00:38:20;;;;;;;3.77;1.90;;;;;;;12.81;69.96;98289.13;4966199;28;20228;-58
2023/04/11 00:40:50;;;;;;;4.03;1.80;;;;;;;12.63;74.17;98309.56;4993857;28;20233;-59
2023/04/11 00:43:19;;;;;;;5.70;2.40;;;;;;;12.49;78.63;98319.75;4960429;28;20253;-57
2023/04/11 00:46:02;;;;;;;3.70;2.43;;;;;;;12.20;81.22;98320.34;4979451;28;20238;-58
2023/04/11 00:48:32;;;;;;;3.97;2.10;;;;;;;12.09;84.39;98329.38;4925264;28;20241;-59
2023/04/11 00:51:05;;;;;;;5.00;2.53;;;;;;;11.77;86.95;98341.50;4987322;28;20236;-58
2023/04/11 00:53:38;;;;;;;4.00;2.50;;;;;;;11.52;97.66;98372.91;4974318;28;20246;-58
2023/04/11 00:56:05;;;;;;;6.27;2.43;;;;;;;11.49;98.90;98347.91;4995335;28;20219;-54
2023/04/11 00:58:33;;;;;;;3.80;2.40;;;;;;;11.28;100.00;98335.31;5014454;28;20312;-59
2023/04/11 01:01:00;;;;;;;4.17;2.50;;;;;;;11.14;100.00;98341.19;5014754;28;20236;-53
2023/04/11 01:03:28;;;;;;;3.67;2.47;;;;;;;11.00;100.00;98309.50;5010747;28;20243;-55
2023/04/11 01:05:55;;;;;;;5.50;2.93;;;;;;;11.02;100.00;98335.47;5018056;28;21104;-56
2023/04/11 01:08:22;;;;;;;3.50;2.57;;;;;;;11.03;100.00;98390.13;5011194;28;20584;-56
2023/04/11 01:10:49;;;;;;;5.80;1.60;;;;;;;10.81;100.00;98414.22;5015766;28;20325;-53
2023/04/11 01:13:17;;;;;;;1.97;0.87;;;;;;;10.68;100.00;98417.28;5010163;28;20228;-56
2023/04/11 01:15:44;;;;;;;4.57;1.27;;;;;;;10.54;100.00;98416.09;5018009;28;20231;-54
2023/04/11 01:18:10;;;;;;;5.30;1.07;;;;;;;10.40;100.00;98413.09;5012776;28;20634;-56
2023/04/11 01:20:39;;;;;;;6.17;1.00;;;;;;;10.26;100.00;98403.19;5013710;28;20225;-56
2023/04/11 01:23:08;;;;;;;4.40;0.83;;;;;;;10.25;100.00;98398.94;5030635;28;20224;-56
2023/04/11 01:25:36;;;;;;;2.57;0.73;;;;;;;10.11;100.00;98392.47;4992583;28;20714;-56
2023/04/11 01:28:03;;;;;;;3.60;1.00;;;;;;;10.08;100.00;98369.31;5014429;28;20235;-57
2023/04/11 01:30:30;;;;;;;4.57;1.00;;;;;;;10.03;100.00;98367.19;5010809;28;20248;-57
2023/04/11 01:32:57;;;;;;;6.77;0.93;;;;;;;10.03;100.00;98391.47;5016174;28;20237;-57
2023/04/11 01:35:24;;;;;;;4.97;1.00;;;;;;;9.95;100.00;98414.06;5014613;28;20221;-56
2023/04/11 01:37:50;;;;;;;3.63;1.00;;;;;;;9.86;100.00;98419.22;5016778;28;20244;-56
2023/04/11 01:40:20;;;;;;;2.30;1.00;;;;;;;9.75;100.00;98411.63;5009256;28;20220;-54
2023/04/11 01:42:48;;;;;;;2.27;0.70;;;;;;;9.72;100.00;98427.56;5015334;28;20228;-57
2023/04/11 01:45:15;;;;;;;7.43;0.73;;;;;;;9.74;100.00;98415.19;5010953;28;20243;-56
2023/04/11 01:47:42;;;;;;;6.50;1.17;;;;;;;9.60;100.00;98413.97;5012384;28;20247;-57
2023/04/11 01:50:10;;;;;;;6.20;1.30;;;;;;;9.56;100.00;98399.59;5012909;28;20323;-57
2023/04/11 01:52:37;;;;;;;1.97;0.60;;;;;;;9.57;100.00;98399.44;5011838;28;20234;-57
2023/04/11 01:55:04;;;;;;;4.80;0.90;;;;;;;9.57;100.00;98407.25;5013598;28;20231;-57
2023/04/11 01:57:31;;;;;;;5.70;0.73;;;;;;;9.58;100.00;98423.72;5012001;28;20236;-58
2023/04/11 02:00:03;;;;;;;2.47;0.67;;;;;;;9.56;100.00;98420.44;5014377;28;20228;-58
2023/04/11 02:02:41;;;;;;;5.60;1.10;;;;;;;9.49;100.00;98422.00;5009147;28;20229;-58
2023/04/11 02:05:10;;;;;;;6.77;0.90;;;;;;;9.37;100.00;98413.59;5015617;28;20227;-58
2023/04/11 02:07:40;;;;;;;4.90;0.80;;;;;;;9.33;100.00;98417.47;5015191;28;20224;-56
2023/04/11 02:10:07;;;;;;;2.90;0.80;;;;;;;9.26;100.00;98422.44;5010133;28;20297;-57
2023/04/11 02:12:34;;;;;;;3.13;0.83;;;;;;;9.27;100.00;98406.66;5011966;28;20587;-55
2023/04/11 02:15:02;;;;;;;5.17;1.00;;;;;;;9.27;100.00;98398.84;5017769;28;20234;-57
2023/04/11 02:17:29;;;;;;;5.87;1.13;;;;;;;9.19;100.00;98401.38;5015906;28;20247;-57
2023/04/11 02:19:56;;;;;;;3.73;1.07;;;;;;;9.19;100.00;98401.38;5011523;28;20232;-57
2023/04/11 02:22:23;;;;;;;4.40;1.00;;;;;;;9.19;100.00;98400.53;5009209;28;20242;-56
2023/04/11 02:24:50;;;;;;;7.50;1.00;;;;;;;9.19;100.00;98403.16;5012243;28;20231;-57
2023/04/11 02:27:17;;;;;;;3.53;0.97;;;;;;;9.16;100.00;98406.88;5012526;28;20314;-57
2023/04/11 02:29:44;;;;;;;5.97;1.30;;;;;;;9.16;100.00;98397.25;5015031;28;20227;-54
2023/04/11 02:32:12;;;;;;;5.33;1.00;;;;;;;9.20;100.00;98392.59;5009358;28;20239;-58
2023/04/11 02:34:38;;;;;;;2.73;0.70;;;;;;;9.19;100.00;98393.56;5021047;28;20229;-58
2023/04/11 02:37:05;;;;;;;5.17;1.37;;;;;;;9.19;100.00;98405.75;5008622;28;21046;-56
2023/04/11 02:39:34;;;;;;;3.80;0.80;;;;;;;9.22;100.00;98401.06;5007658;28;20289;-58
2023/04/11 02:42:00;;;;;;;2.93;1.00;;;;;;;9.25;100.00;98373.91;5013502;28;20236;-57
2023/04/11 02:44:28;;;;;;;4.43;1.20;;;;;;;9.26;100.00;98371.16;5010234;28;20678;-57
2023/04/11 02:46:55;;;;;;;5.80;1.00;;;;;;;9.24;100.00;98373.09;5007699;28;20227;-55
2023/04/11 02:49:23;;;;;;;3.70;0.60;;;;;;;9.24;100.00;98374.88;5015569;28;20690;-57
2023/04/11 02:51:50;;;;;;;1.60;0.80;;;;;;;9.26;100.00;98365.13;5011618;28;20679;-57
2023/04/11 02:54:17;;;;;;;3.60;1.10;;;;;;;9.29;100.00;98380.47;5019367;28;20243;-55
2023/04/11 02:56:44;;;;;;;3.37;0.87;;;;;;;9.28;100.00;98387.47;5021841;28;20227;-54
2023/04/11 02:59:10;;;;;;;3.17;0.87;;;;;;;9.28;100.00;98379.66;5014261;28;20729;-57
2023/04/11 03:01:37;;;;;;;2.50;0.77;;;;;;;9.28;100.00;98384.88;5010288;28;20808;-57
2023/04/11 03:04:06;;;;;;;1.73;0.90;;;;;;;9.34;100.00;98393.84;5021203;28;20627;-57
2023/04/11 03:06:54;;;;;;;2.87;0.70;;;;;;;9.36;100.00;98398.94;5011553;28;20228;-56
2023/04/11 03:09:22;;;;;;;3.23;0.90;;;;;;;9.35;100.00;98400.69;5021728;28;20583;-58
2023/04/11 03:11:48;;;;;;;4.73;1.03;;;;;;;9.36;100.00;98396.31;5015844;28;20236;-59
2023/04/11 03:14:16;;;;;;;4.93;1.30;;;;;;;9.38;100.00;98399.59;5009361;28;20747;-58
2023/04/11 03:16:42;;;;;;;3.60;1.73;;;;;;;9.42;100.00;98393.13;5017112;28;20231;-57
2023/04/11 03:19:09;;;;;;;5.30;1.87;;;;;;;9.41;100.00;98396.69;5021996;28;20309;-58
2023/04/11 03:21:36;;;;;;;5.43;1.27;;;;;;;9.47;100.00;98396.09;5017422;28;20268;-56
2023/04/11 03:24:06;;;;;;;4.80;1.13;;;;;;;9.49;100.00;98394.16;5013197;28;20235;-56
2023/04/11 03:26:32;;;;;;;5.70;1.47;;;;;;;9.50;100.00;98406.22;5013678;28;20788;-59
2023/04/11 03:29:06;;;;;;;7.60;1.03;;;;;;;9.48;100.00;98418.59;5016044;28;20695;-58
2023/04/11 03:31:41;;;;;;;6.27;1.17;;;;;;;9.45;100.00;98414.47;5213496;22;20328;-55
2023/04/11 03:34:08;;;;;;;3.17;0.90;;;;;;;9.43;100.00;98421.63;5001371;28;20230;-57
2023/04/11 03:36:35;;;;;;;3.50;1.00;;;;;;;9.39;100.00;98422.09;5000981;28;20239;-57
2023/04/11 03:39:06;;;;;;;4.87;1.10;;;;;;;9.35;100.00;98438.97;5002243;28;20322;-57
2023/04/11 03:41:32;;;;;;;4.13;1.40;;;;;;;9.24;100.00;98461.66;5011077;28;20306;-58
2023/04/11 03:43:59;;;;;;;4.50;1.00;;;;;;;9.20;100.00;98457.69;5002057;28;20588;-55
2023/04/11 03:46:26;;;;;;;5.03;0.90;;;;;;;9.11;100.00;98459.38;5026304;22;20242;-63
2023/04/11 03:48:53;;;;;;;3.63;1.00;;;;;;;9.06;100.00;98472.00;5018723;28;20233;-63
2023/04/11 03:51:21;;;;;;;6.00;1.53;;;;;;;8.95;100.00;98483.44;5011924;28;20723;-63
2023/04/11 03:53:59;;;;;;;1.93;0.80;;;;;;;8.90;100.00;98477.84;5017947;28;20665;-63
2023/04/11 03:56:32;;;;;;;1.13;0.70;;;;;;;8.92;100.00;98477.72;5018162;28;20328;-63
2023/04/11 03:59:00;;;;;;;1.93;0.90;;;;;;;8.85;100.00;98480.91;5017315;28;20818;-63
2023/04/11 04:01:36;;;;;;;2.87;0.80;;;;;;;8.86;100.00;98479.09;5015782;28;20229;-63
2023/04/11 04:04:07;;;;;;;2.83;0.90;;;;;;;8.83;100.00;98484.59;5015037;28;20232;-63
2023/04/11 04:06:37;;;;;;;1.83;1.10;;;;;;;8.85;100.00;98503.50;5015985;28;20230;-63
2023/04/11 04:09:05;;;;;;;3.43;0.70;;;;;;;8.80;100.00;98511.75;5026404;28;20304;-63
2023/04/11 04:11:45;;;;;;;3.37;0.70;;;;;;;8.73;100.00;98509.81;5025306;28;20240;-63
2023/04/11 04:14:12;;;;;;;2.47;0.83;;;;;;;8.76;100.00;98522.56;5013816;28;20226;-63
2023/04/11 04:16:39;;;;;;;1.97;0.63;;;;;;;8.77;100.00;98532.00;5034308;28;20249;-63
2023/04/11 04:19:07;;;;;;;1.30;0.53;;;;;;;8.65;100.00;98526.97;5035163;28;20221;-63
2023/04/11 04:21:36;;;;;;;2.30;0.50;;;;;;;8.64;100.00;98527.94;5026249;28;20728;-63
2023/04/11 04:24:04;;;;;;;1.97;0.60;;;;;;;8.61;100.00;98528.22;5026312;28;20974;-63
2023/04/11 04:26:48;;;;;;;1.90;0.40;;;;;;;8.52;100.00;98527.28;5023680;28;20253;-63
2023/04/11 04:29:32;;;;;;;1.93;0.50;;;;;;;8.52;100.00;98518.63;5015388;28;20329;-63
2023/04/11 04:32:01;;;;;;;3.03;0.50;;;;;;;8.46;100.00;98519.19;5017996;28;20238;-63
2023/04/11 04:34:40;;;;;;;2.10;0.40;;;;;;;8.47;100.00;98521.66;5025108;28;20229;-63
2023/04/11 04:37:07;;;;;;;2.23;0.40;;;;;;;8.42;100.00;98516.03;5024950;28;20708;-63
2023/04/11 04:39:40;;;;;;;31.40;14.80;;;;;;;8.42;100.00;98529.88;5014896;28;20229;-63
2023/04/11 04:42:10;;;;;;;6.13;3.50;;;;;;;8.35;100.00;98539.19;5015388;28;20883;-63
2023/04/11 04:44:39;;;;;;;7.00;2.80;;;;;;;8.32;100.00;98541.25;5024433;28;20330;-63
2023/04/11 04:47:14;;;;;;;7.83;2.73;;;;;;;8.28;100.00;98535.50;5014496;28;20233;-63
2023/04/11 04:49:41;;;;;;;2.50;0.77;;;;;;;8.21;100.00;98535.22;5020694;28;20221;-63
2023/04/11 04:52:08;;;;;;;9.67;3.57;;;;;;;8.18;100.00;98542.50;5013409;28;20314;-62
2023/04/11 04:54:35;;;;;;;14.60;6.97;;;;;;;8.17;100.00;98557.25;5027666;28;20232;-62
2023/04/11 04:57:02;;;;;;;32.97;13.30;;;;;;;8.20;100.00;98558.78;5025987;28;20279;-62
2023/04/11 04:59:30;;;;;;;3.03;1.20;;;;;;;8.17;100.00;98566.84;5023092;28;20231;-62
2023/04/11 05:02:06;;;;;;;5.43;1.80;;;;;;;8.13;100.00;98571.50;5014914;28;20260;-62
2023/04/11 05:04:34;;;;;;;4.87;1.20;;;;;;;8.08;100.00;98579.72;5023952;28;20316;-62
2023/04/11 05:07:02;;;;;;;2.23;0.90;;;;;;;8.08;100.00;98582.31;5014667;28;20769;-62
2023/04/11 05:09:30;;;;;;;0.73;0.60;;;;;;;8.10;100.00;98574.34;5015152;28;20234;-63
2023/04/11 05:12:07;;;;;;;2.77;1.40;;;;;;;8.11;100.00;98571.63;5020543;28;20316;-63
2023/04/11 05:14:38;;;;;;;2.93;0.70;;;;;;;8.18;100.00;98571.09;5014355;28;20279;-63
2023/04/11 05:17:05;;;;;;;3.70;1.90;;;;;;;8.15;100.00;98569.56;5014101;28;20262;-63
2023/04/11 05:19:32;;;;;;;2.20;0.90;;;;;;;8.13;100.00;98577.53;5032682;28;20232;-63
2023/04/11 05:21:59;;;;;;;2.80;0.70;;;;;;;8.19;100.00;98588.34;5018336;28;20230;-63
2023/04/11 05:24:25;;;;;;;3.53;1.00;;;;;;;8.13;100.00;98580.13;5010950;28;21744;-63
2023/04/11 05:26:53;;;;;;;4.17;1.50;;;;;;;8.09;100.00;98583.13;5014407;28;20230;-63
2023/04/11 05:29:20;;;;;;;4.23;1.40;;;;;;;8.10;100.00;98587.34;5015914;28;20225;-62
2023/04/11 05:31:49;;;;;;;3.07;0.70;;;;;;;8.13;100.00;98581.88;5010815;28;20337;-62
2023/04/11 05:34:17;;;;;;;2.00;0.60;;;;;;;8.17;100.00;98595.44;5012013;28;20229;-62
2023/04/11 05:36:47;;;;;;;4.63;0.90;;;;;;;8.15;100.00;98592.97;5012870;28;20225;-62
2023/04/11 05:39:13;;;;;;;3.40;0.73;;;;;;;8.09;100.00;98601.31;5035822;28;20225;-62
2023/04/11 05:41:40;;;;;;;3.67;0.83;;;;;;;8.11;100.00;98592.44;5015742;28;20617;-62
2023/04/11 05:44:07;;;;;;;2.73;0.57;;;;;;;8.13;100.00;98593.13;5014533;28;20927;-62
2023/04/11 05:46:35;;;;;;;2.50;0.70;;;;;;;8.10;100.00;98600.34;5012942;28;20268;-62
2023/04/11 05:49:03;;;;;;;2.43;0.60;;;;;;;8.11;100.00;98599.41;5026082;28;20244;-65
2023/04/11 05:51:30;;;;;;;3.30;0.53;;;;;;;8.09;100.00;98609.09;5013738;28;20244;-63
2023/04/11 05:53:57;;;;;;;4.20;0.87;;;;;;;8.08;100.00;98602.28;5024421;28;20232;-63
2023/04/11 05:56:23;;;;;;;3.87;0.87;;;;;;;8.14;100.00;98599.13;5024763;28;20234;-63
2023/04/11 05:58:51;;;;;;;3.37;0.90;;;;;;;8.19;100.00;98614.34;5031553;28;20233;-63
2023/04/11 06:01:18;;;;;;;4.70;1.30;;;;;;;8.26;100.00;98618.03;5024908;28;20514;-62
2023/04/11 06:03:45;;;;;;;5.30;2.40;;;;;;;8.31;100.00;98625.41;5036179;28;20320;-62
2023/04/11 06:06:13;;;;;;;7.10;1.20;;;;;;;8.25;100.00;98614.59;5030681;28;20235;-62
2023/04/11 06:08:40;;;;;;;5.03;0.90;;;;;;;8.38;100.00;98624.75;5028442;28;20233;-62
2023/04/11 06:11:07;;;;;;;6.50;1.10;;;;;;;8.40;100.00;98616.78;5010841;28;20238;-62
2023/04/11 06:13:33;;;;;;;6.37;1.10;;;;;;;8.23;100.00;98611.31;5033312;28;20933;-62
2023/04/11 06:16:00;;;;;;;6.93;1.17;;;;;;;8.25;99.68;98619.00;5033769;28;20245;-62
2023/04/11 06:18:27;;;;;;;5.53;0.80;;;;;;;8.27;100.00;98633.50;5029439;28;20237;-62
2023/04/11 06:20:54;;;;;;;3.03;1.33;;;;;;;8.28;100.00;98639.53;5024566;28;20754;-62
2023/04/11 06:23:22;;;;;;;3.10;1.07;;;;;;;8.17;100.00;98647.44;5029500;28;20244;-62
2023/04/11 06:25:48;;;;;;;2.53;0.90;;;;;;;8.22;100.00;98642.66;5034198;28;20229;-62
2023/04/11 06:28:15;;;;;;;5.07;1.20;;;;;;;8.38;99.12;98648.16;5015047;28;20245;-62
2023/04/11 06:30:44;;;;;;;4.23;0.97;;;;;;;8.41;97.91;98653.09;5032552;28;20231;-62
2023/04/11 06:33:10;;;;;;;6.63;1.47;;;;;;;8.51;97.74;98649.69;5033277;28;20252;-62
2023/04/11 06:35:37;;;;;;;5.93;1.40;;;;;;;8.56;98.84;98647.50;5032803;28;20757;-62
2023/04/11 06:38:04;;;;;;;4.03;0.83;;;;;;;8.59;98.37;98638.59;5013468;28;20305;-62
2023/04/11 06:40:32;;;;;;;4.17;0.80;;;;;;;8.63;98.08;98635.56;5028074;28;20237;-62
2023/04/11 06:42:59;;;;;;;4.23;1.27;;;;;;;8.61;96.50;98647.09;5034686;28;20260;-62
2023/04/11 06:45:26;;;;;;;6.80;1.30;;;;;;;8.65;97.60;98649.25;5026180;28;20813;-62
2023/04/11 06:47:55;;;;;;;9.23;1.87;;;;;;;8.74;97.60;98654.59;5029938;28;20616;-62
2023/04/11 06:50:22;;;;;;;4.30;1.47;;;;;;;8.77;96.74;98655.16;5021713;28;20233;-63
2023/04/11 06:52:49;;;;;;;5.17;1.03;;;;;;;8.81;93.27;98647.88;5033907;28;20237;-64
2023/04/11 06:55:19;;;;;;;6.93;1.63;;;;;;;9.03;96.18;98654.56;5026424;28;20230;-63
2023/04/11 06:57:47;;;;;;;6.73;2.10;;;;;;;9.05;91.57;98655.25;5037583;28;20324;-63
2023/04/11 07:00:15;;;;;;;5.73;1.23;;;;;;;9.14;92.33;98675.22;5027000;28;20222;-63
2023/04/11 07:02:43;;;;;;;5.73;1.50;;;;;;;9.16;90.93;98688.13;5034893;28;20228;-63
2023/04/11 07:05:10;;;;;;;8.77;1.60;;;;;;;9.20;92.23;98692.09;5030255;28;20234;-63
2023/04/11 07:07:37;;;;;;;8.00;1.20;;;;;;;9.05;90.91;98689.09;5032213;28;20243;-63
2023/04/11 07:10:04;;;;;;;7.30;1.13;;;;;;;9.17;89.98;98674.16;5033160;28;20279;-63
2023/04/11 07:12:31;;;;;;;7.83;1.60;;;;;;;9.25;90.28;98696.88;5029270;28;20741;-63
2023/04/11 07:14:58;;;;;;;9.27;3.70;;;;;;;9.40;89.79;98692.06;5032057;28;20232;-63
2023/04/11 07:17:25;;;;;;;10.10;1.50;;;;;;;9.60;89.16;98704.03;5033988;28;20311;-63
2023/04/11 07:19:52;;;;;;;9.30;2.50;;;;;;;9.67;89.06;98699.09;5026970;28;20778;-63
2023/04/11 07:22:19;;;;;;;4.37;2.00;;;;;;;9.85;86.74;98701.75;5027634;28;20246;-63
2023/04/11 07:24:46;;;;;;;8.77;1.70;;;;;;;9.63;87.22;98705.53;5029899;28;20230;-63
2023/04/11 07:27:13;;;;;;;6.77;1.90;;;;;;;9.48;87.55;98705.19;5025670;28;20281;-63
2023/04/11 07:29:40;;;;;;;6.10;1.80;;;;;;;9.51;87.88;98706.69;5025652;28;20289;-63
2023/04/11 07:32:08;;;;;;;7.80;1.80;;;;;;;9.39;88.58;98709.44;5031100;28;20282;-63
2023/04/11 07:34:35;;;;;;;10.37;2.60;;;;;;;9.57;88.11;98711.31;5025217;28;20237;-63
2023/04/11 07:37:02;;;;;;;9.87;1.90;;;;;;;9.53;86.89;98718.63;5031056;28;20230;-63
2023/04/11 07:39:29;;;;;;;12.00;2.23;;;;;;;9.77;86.66;98711.25;5032675;28;20297;-63
2023/04/11 07:41:55;;;;;;;9.17;2.27;;;;;;;10.04;85.09;98702.63;5036890;28;20311;-63
2023/04/11 07:44:22;;;;;;;6.93;1.57;;;;;;;10.50;80.19;98722.72;5032261;28;20234;-63
2023/04/11 07:46:48;;;;;;;5.17;1.30;;;;;;;10.61;79.89;98718.09;5026474;28;20227;-63
2023/04/11 07:49:16;;;;;;;8.97;2.50;;;;;;;10.12;81.93;98720.97;5030087;28;20228;-63
2023/04/11 07:51:43;;;;;;;6.90;2.50;;;;;;;10.54;81.11;98737.09;5032922;28;20660;-63
2023/04/11 07:54:10;;;;;;;9.23;2.63;;;;;;;10.32;81.87;98719.06;5031344;28;20227;-63
2023/04/11 07:56:37;;;;;;;20.57;6.23;;;;;;;10.53;79.50;98715.38;5032956;28;20713;-63
2023/04/11 07:59:04;;;;;;;12.13;2.63;;;;;;;10.41;81.23;98719.19;5033694;28;20680;-63
2023/04/11 08:01:31;;;;;;;8.93;2.67;;;;;;;10.63;80.00;98712.69;5031806;28;20234;-63
2023/04/11 08:03:57;;;;;;;9.50;1.80;;;;;;;10.86;81.15;98725.31;5024705;28;20598;-63
2023/04/11 08:06:27;;;;;;;8.43;2.33;;;;;;;11.05;74.46;98721.72;5031430;28;20254;-63
2023/04/11 08:08:55;;;;;;;7.03;2.30;;;;;;;10.92;79.12;98720.31;5033939;28;20216;-63
2023/04/11 08:11:22;;;;;;;8.90;2.17;;;;;;;10.84;80.62;98720.25;5033381;28;20627;-63
2023/04/11 08:13:49;;;;;;;10.90;2.67;;;;;;;10.26;80.47;98726.66;5035084;28;20238;-63
2023/04/11 08:16:16;;;;;;;7.77;2.17;;;;;;;9.95;84.98;98722.56;5032611;28;20296;-63
2023/04/11 08:18:44;;;;;;;9.50;1.80;;;;;;;9.97;80.50;98725.03;5029253;28;20750;-63
2023/04/11 08:21:12;;;;;;;10.07;2.00;;;;;;;9.66;85.88;98715.69;5009623;28;20240;-63
2023/04/11 08:23:40;;;;;;;10.43;1.97;;;;;;;9.69;85.00;98704.13;5018141;28;20231;-62
2023/04/11 08:26:08;;;;;;;11.00;1.57;;;;;;;9.79;85.60;98711.94;5031943;28;20786;-61
2023/04/11 08:28:35;;;;;;;21.97;6.60;;;;;;;9.72;82.21;98711.69;5029263;28;20222;-64
2023/04/11 08:31:02;;;;;;;6.33;1.70;;;;;;;9.88;83.47;98729.31;5030223;28;20257;-64
2023/04/11 08:33:29;;;;;;;5.37;2.40;;;;;;;9.77;78.72;98714.66;5031956;28;20230;-64
2023/04/11 08:35:56;;;;;;;7.60;1.50;;;;;;;9.67;83.54;98713.88;5032938;28;20250;-64
2023/04/11 08:38:23;;;;;;;9.03;2.20;;;;;;;9.41;82.07;98712.75;5030151;28;20704;-64
2023/04/11 08:40:51;;;;;;;9.07;1.93;;;;;;;9.49;85.14;98709.44;5023890;28;20223;-63
2023/04/11 08:43:19;;;;;;;9.67;2.00;;;;;;;9.40;83.54;98716.31;5023371;28;20224;-63
2023/04/11 08:45:46;;;;;;;11.87;1.80;;;;;;;9.52;85.24;98719.59;5032863;28;20267;-63
2023/04/11 08:48:15;;;;;;;16.20;2.17;;;;;;;10.02;85.37;98735.84;5032916;28;20222;-63
2023/04/11 08:50:44;;;;;;;7.33;3.37;;;;;;;10.17;81.60;98729.19;5034091;28;20441;-63
2023/04/11 08:53:12;;;;;;;8.17;2.00;;;;;;;10.63;83.91;98729.19;5021815;28;20232;-63
2023/04/11 08:55:45;;;;;;;5.70;1.93;;;;;;;10.85;79.85;98724.50;5032781;28;20250;-63
2023/04/11 08:58:13;;;;;;;9.63;2.43;;;;;;;10.70;81.04;98726.78;5029536;28;20638;-63
2023/04/11 09:00:40;;;;;;;5.33;1.57;;;;;;;10.76;74.74;98726.19;5026251;28;20702;-63
2023/04/11 09:03:08;;;;;;;9.00;1.70;;;;;;;10.48;76.70;98728.91;5027347;28;20227;-63
2023/04/11 09:05:37;;;;;;;10.17;1.80;;;;;;;10.38;75.26;98720.28;5030189;28;20235;-63
2023/04/11 09:08:07;;;;;;;7.23;1.90;;;;;;;10.54;73.06;98713.63;5022787;28;20233;-63
2023/04/11 09:10:34;;;;;;;7.97;2.80;;;;;;;10.61;75.67;98717.25;5012537;28;20317;-63
2023/04/11 09:13:01;;;;;;;8.47;2.10;;;;;;;10.83;74.48;98723.00;5033038;28;20242;-63
2023/04/11 09:15:31;;;;;;;11.77;3.50;;;;;;;10.44;75.55;98716.28;5029238;28;20293;-63
2023/04/11 09:17:58;;;;;;;8.17;2.90;;;;;;;10.40;76.76;98723.59;5029798;28;20227;-63
2023/04/11 09:20:28;;;;;;;11.17;6.33;;;;;;;10.13;80.24;98721.78;5025334;28;20238;-63
2023/04/11 09:22:58;;;;;;;11.00;3.10;;;;;;;10.36;82.08;98716.16;5030961;28;20230;-63
2023/04/11 09:25:25;;;;;;;12.13;6.63;;;;;;;10.61;81.01;98722.47;5011137;28;20219;-63
2023/04/11 09:28:08;;;;;;;6.57;1.80;;;;;;;10.52;78.48;98726.00;5031978;28;20243;-63
2023/04/11 09:30:36;;;;;;;8.73;1.77;;;;;;;10.42;77.04;98731.25;5030488;28;20297;-63
2023/04/11 09:33:20;;;;;;;4.67;1.70;;;;;;;10.13;79.36;98734.81;5030700;28;20350;-63
2023/04/11 09:35:48;;;;;;;8.87;3.37;;;;;;;10.00;83.41;98737.78;5024154;28;20763;-63
2023/04/11 09:38:26;;;;;;;7.60;2.90;;;;;;;9.84;85.44;98739.22;5025653;28;20294;-63
2023/04/11 09:40:53;;;;;;;7.93;3.63;;;;;;;10.00;87.03;98743.00;5030349;28;20223;-63
2023/04/11 09:43:20;;;;;;;8.67;2.70;;;;;;;10.11;86.83;98747.19;5030459;28;20238;-63
2023/04/11 09:45:49;;;;;;;6.03;2.50;;;;;;;10.11;84.55;98740.19;5032884;28;20235;-63
2023/04/11 09:48:17;;;;;;;13.53;3.80;;;;;;;10.44;82.30;98747.59;5027340;28;20326;-63
2023/04/11 09:50:44;;;;;;;8.43;2.30;;;;;;;11.10;80.10;98756.06;5020208;28;20246;-63
2023/04/11 09:53:11;;;;;;;7.97;2.03;;;;;;;11.45;82.94;98740.47;5017135;28;20225;-63
2023/04/11 09:55:38;;;;;;;5.70;1.50;;;;;;;11.51;77.30;98745.88;5021223;28;20234;-63
2023/04/11 09:58:06;;;;;;;7.43;2.13;;;;;;;12.23;79.00;98746.56;5029368;28;20236;-63
2023/04/11 10:00:32;;;;;;;8.03;1.40;;;;;;;12.12;71.33;98752.91;5025138;28;20229;-63
2023/04/11 10:03:00;;;;;;;7.10;1.93;;;;;;;12.50;71.35;98753.38;5033215;28;20232;-63
2023/04/11 10:05:30;;;;;;;3.30;1.40;;;;;;;12.54;71.60;98754.69;5028671;28;20247;-63
2023/04/11 10:08:04;;;;;;;7.87;2.43;;;;;;;12.87;68.07;98748.66;5034047;28;20251;-63
2023/04/11 10:10:31;;;;;;;5.10;1.60;;;;;;;12.80;69.06;98745.88;5031042;28;20227;-63
2023/04/11 10:12:58;;;;;;;6.97;1.97;;;;;;;12.77;72.44;98748.81;5034782;28;20239;-63
2023/04/11 10:15:25;;;;;;;4.37;1.63;;;;;;;12.89;75.61;98751.94;5028399;28;20230;-63
2023/04/11 10:18:10;;;;;;;5.33;1.50;;;;;;;12.66;66.31;98739.47;5029072;28;20363;-63
2023/04/11 10:20:49;;;;;;;5.27;1.40;;;;;;;12.66;71.93;98747.34;5025578;28;20660;-63
2023/04/11 10:23:16;;;;;;;8.87;1.60;;;;;;;12.77;68.80;98730.47;5011671;28;20235;-63
2023/04/11 10:25:54;;;;;;;5.80;1.70;;;;;;;13.09;67.02;98747.19;5032097;28;20249;-63
2023/04/11 10:28:36;;;;;;;10.43;1.60;;;;;;;12.77;71.49;98733.09;5025512;28;20233;-63
2023/04/11 10:31:06;;;;;;;4.90;1.73;;;;;;;12.76;68.54;98736.69;5034140;28;20228;-63
2023/04/11 10:33:35;;;;;;;8.40;1.90;;;;;;;12.48;66.65;98744.84;5030634;28;20313;-63
2023/04/11 10:36:04;;;;;;;8.20;1.87;;;;;;;12.50;66.14;98748.13;5030865;28;20228;-63
2023/04/11 10:38:50;;;;;;;4.90;1.20;;;;;;;12.31;59.98;98740.53;5030606;28;20286;-63
2023/04/11 10:41:30;;;;;;;5.50;1.50;;;;;;;12.38;58.47;98755.44;5028239;28;20579;-63
2023/04/11 10:44:15;;;;;;;6.20;1.30;;;;;;;12.51;59.27;98762.84;5031716;28;20298;-63
2023/04/11 10:46:47;;;;;;;7.53;1.40;;;;;;;11.96;62.30;98754.44;5013148;28;20240;-63
2023/04/11 10:49:32;;;;;;;3.80;1.70;;;;;;;12.83;58.07;98747.34;5029487;28;20234;-63
2023/04/11 10:52:21;;;;;;;6.47;1.93;;;;;;;12.25;60.04;98747.22;5026497;28;21158;-63
2023/04/11 10:54:49;;;;;;;6.00;1.80;;;;;;;12.31;60.80;98741.34;5030408;28;20687;-63
2023/04/11 10:57:15;;;;;;;6.00;1.80;;;;;;;13.18;58.99;98747.19;5029994;28;20240;-63
2023/04/11 11:00:07;;;;;;;7.83;1.37;;;;;;;13.34;56.10;98762.09;5012910;28;20286;-63
2023/04/11 11:02:38;;;;;;;3.93;1.60;;;;;;;13.30;53.14;98761.59;5027418;28;20592;-63
2023/04/11 11:05:22;;;;;;;4.37;1.60;;;;;;;13.11;52.94;98771.44;5035232;28;20231;-63
2023/04/11 11:07:52;;;;;;;8.70;2.40;;;;;;;13.21;51.01;98762.59;5031162;28;20282;-63
2023/04/11 11:10:41;;;;;;;3.53;1.47;;;;;;;12.93;52.74;98761.13;5030202;28;20239;-63
2023/04/11 11:13:08;;;;;;;7.93;1.67;;;;;;;12.49;53.16;98761.38;5031476;28;20279;-64
2023/04/11 11:15:37;;;;;;;6.70;1.67;;;;;;;12.54;53.54;98756.47;5035405;28;20712;-64
2023/04/11 11:18:05;;;;;;;4.80;1.30;;;;;;;13.19;53.37;98770.63;5036601;28;20709;-64
2023/04/11 11:20:34;;;;;;;5.87;1.60;;;;;;;12.75;52.93;98753.38;5013723;28;20243;-64
2023/04/11 11:23:02;;;;;;;9.43;2.07;;;;;;;12.53;53.75;98750.44;5036563;28;20703;-64
2023/04/11 11:25:29;;;;;;;7.17;2.00;;;;;;;12.74;54.65;98759.59;5032818;28;20289;-64
2023/04/11 11:28:02;;;;;;;8.20;2.03;;;;;;;12.97;54.68;98757.19;5035365;28;20230;-64
2023/04/11 11:30:29;;;;;;;9.87;2.43;;;;;;;12.99;55.09;98757.00;5036559;28;20232;-64
2023/04/11 11:32:58;;;;;;;6.47;1.90;;;;;;;12.75;54.38;98755.19;5034330;28;20722;-64
2023/04/11 11:35:25;;;;;;;6.80;2.00;;;;;;;13.21;53.87;98760.81;5030303;28;20545;-64
2023/04/11 11:37:54;;;;;;;13.23;2.67;;;;;;;12.91;54.55;98751.78;5035113;28;20244;-64
2023/04/11 11:40:21;;;;;;;9.77;2.30;;;;;;;13.20;54.39;98753.94;5035536;28;20221;-64
2023/04/11 11:42:51;;;;;;;7.90;2.00;;;;;;;13.75;54.17;98759.44;5035189;28;20226;-64